sensor_id;sensor_type;location;lat;lon;timestamp;temperature;humidity
34829;DHT22;21042;47.620;12.188;2022-11-04T00:00:10;10.60;99.90
34829;DHT22;21042;47.620;12.188;2022-11-04T00:02:37;10.60;99.90
34829;DHT22;21042;47.620;12.188;2022-11-04T00:05:04;10.50;99.90
34829;DHT22;21042;47.620;12.188;2022-11-04T00:07:31;10.50;99.90
34829;DHT22;21042;47.620;12.188;2022-11-04T00:10:26;10.40;99.90
34829;DHT22;21042;47.620;12.188;2022-11-04T00:13:13;10.40;99.90
34829;DHT22;21042;47.620;12.188;2022-11-04T00:15:40;10.40;99.90
34829;DHT22;21042;47.620;12.188;2022-11-04T00:18:25;10.30;99.90
34829;DHT22;21042;47.620;12.188;2022-11-04T00:20:52;10.20;99.90
34829;DHT22;21042;47.620;12.188;2022-11-04T00:23:37;10.30;99.90
34829;DHT22;21042;47.620;12.188;2022-11-04T00:29:22;10.30;99.90
34829;DHT22;21042;47.620;12.188;2022-11-04T00:31:48;10.30;99.90
34829;DHT22;21042;47.620;12.188;2022-11-04T00:34:33;10.40;99.90
34829;DHT22;21042;47.620;12.188;2022-11-04T00:37:00;10.70;99.90
34829;DHT22;21042;47.620;12.188;2022-11-04T00:39:28;10.90;99.90
34829;DHT22;21042;47.620;12.188;2022-11-04T00:41:55;11.10;99.90
34829;DHT22;21042;47.620;12.188;2022-11-04T00:44:22;11.00;99.90
34829;DHT22;21042;47.620;12.188;2022-11-04T00:46:48;10.90;99.90
34829;DHT22;21042;47.620;12.188;2022-11-04T00:49:15;10.80;99.90
34829;DHT22;21042;47.620;12.188;2022-11-04T00:51:42;10.70;99.90
34829;DHT22;21042;47.620;12.188;2022-11-04T00:54:08;10.70;99.90
34829;DHT22;21042;47.620;12.188;2022-11-04T00:56:39;10.70;99.90
34829;DHT22;21042;47.620;12.188;2022-11-04T00:59:06;10.70;99.90
34829;DHT22;21042;47.620;12.188;2022-11-04T01:01:39;10.80;99.90
34829;DHT22;21042;47.620;12.188;2022-11-04T01:04:06;10.80;99.90
34829;DHT22;21042;47.620;12.188;2022-11-04T01:06:32;10.80;99.90
34829;DHT22;21042;47.620;12.188;2022-11-04T01:09:02;10.70;99.90
34829;DHT22;21042;47.620;12.188;2022-11-04T01:11:29;10.70;99.90
34829;DHT22;21042;47.620;12.188;2022-11-04T01:13:57;10.70;99.90
34829;DHT22;21042;47.620;12.188;2022-11-04T01:16:24;10.80;99.90
34829;DHT22;21042;47.620;12.188;2022-11-04T01:18:57;10.80;99.90
34829;DHT22;21042;47.620;12.188;2022-11-04T01:21:24;10.90;99.90
34829;DHT22;21042;47.620;12.188;2022-11-04T01:23:51;10.90;99.90
34829;DHT22;21042;47.620;12.188;2022-11-04T01:26:23;11.00;99.90
34829;DHT22;21042;47.620;12.188;2022-11-04T01:28:51;10.90;99.90
34829;DHT22;21042;47.620;12.188;2022-11-04T01:31:20;10.70;99.90
34829;DHT22;21042;47.620;12.188;2022-11-04T01:33:49;10.50;99.90
34829;DHT22;21042;47.620;12.188;2022-11-04T01:36:16;10.30;99.90
34829;DHT22;21042;47.620;12.188;2022-11-04T01:38:43;10.20;99.90
34829;DHT22;21042;47.620;12.188;2022-11-04T01:41:26;10.10;99.90
34829;DHT22;21042;47.620;12.188;2022-11-04T01:43:58;10.00;99.90
34829;DHT22;21042;47.620;12.188;2022-11-04T01:49:07;9.90;99.90
34829;DHT22;21042;47.620;12.188;2022-11-04T01:51:37;9.90;99.90
34829;DHT22;21042;47.620;12.188;2022-11-04T01:54:07;9.80;99.90
34829;DHT22;21042;47.620;12.188;2022-11-04T01:56:34;9.80;99.90
34829;DHT22;21042;47.620;12.188;2022-11-04T01:59:06;9.70;99.90
34829;DHT22;21042;47.620;12.188;2022-11-04T02:01:34;9.60;99.90
34829;DHT22;21042;47.620;12.188;2022-11-04T02:04:02;9.60;99.90
34829;DHT22;21042;47.620;12.188;2022-11-04T02:06:48;9.50;99.90
34829;DHT22;21042;47.620;12.188;2022-11-04T02:09:17;9.50;99.90
34829;DHT22;21042;47.620;12.188;2022-11-04T02:11:45;9.40;99.90
34829;DHT22;21042;47.620;12.188;2022-11-04T02:14:31;9.40;99.90
34829;DHT22;21042;47.620;12.188;2022-11-04T02:19:57;9.30;99.90
34829;DHT22;21042;47.620;12.188;2022-11-04T02:30:20;9.30;99.90
34829;DHT22;21042;47.620;12.188;2022-11-04T02:35:45;9.20;99.90
34829;DHT22;21042;47.620;12.188;2022-11-04T02:38:56;9.20;99.90
34829;DHT22;21042;47.620;12.188;2022-11-04T02:41:40;9.20;99.90
34829;DHT22;21042;47.620;12.188;2022-11-04T02:47:01;9.20;99.90
34829;DHT22;21042;47.620;12.188;2022-11-04T02:52:11;9.20;99.90
34829;DHT22;21042;47.620;12.188;2022-11-04T02:54:47;9.20;99.90
34829;DHT22;21042;47.620;12.188;2022-11-04T02:57:19;9.30;99.90
34829;DHT22;21042;47.620;12.188;2022-11-04T02:59:52;9.20;99.90
34829;DHT22;21042;47.620;12.188;2022-11-04T03:02:49;9.30;99.90
34829;DHT22;21042;47.620;12.188;2022-11-04T03:05:16;9.20;99.90
34829;DHT22;21042;47.620;12.188;2022-11-04T03:07:46;9.20;99.90
34829;DHT22;21042;47.620;12.188;2022-11-04T03:10:59;9.20;99.90
34829;DHT22;21042;47.620;12.188;2022-11-04T03:13:13;9.10;99.90
34829;DHT22;21042;47.620;12.188;2022-11-04T03:15:56;9.10;99.90
34829;DHT22;21042;47.620;12.188;2022-11-04T03:21:36;9.10;99.90
34829;DHT22;21042;47.620;12.188;2022-11-04T03:24:04;9.20;99.90
34829;DHT22;21042;47.620;12.188;2022-11-04T03:26:58;9.10;99.90
34829;DHT22;21042;47.620;12.188;2022-11-04T03:29:55;9.10;99.90
34829;DHT22;21042;47.620;12.188;2022-11-04T03:32:39;9.10;99.90
34829;DHT22;21042;47.620;12.188;2022-11-04T03:35:08;9.10;99.90
34829;DHT22;21042;47.620;12.188;2022-11-04T03:37:35;9.00;99.90
34829;DHT22;21042;47.620;12.188;2022-11-04T03:40:02;8.90;99.90
34829;DHT22;21042;47.620;12.188;2022-11-04T03:42:29;8.80;99.90
34829;DHT22;21042;47.620;12.188;2022-11-04T03:44:58;8.80;99.90
34829;DHT22;21042;47.620;12.188;2022-11-04T03:47:28;8.80;99.90
34829;DHT22;21042;47.620;12.188;2022-11-04T03:50:04;8.90;99.90
34829;DHT22;21042;47.620;12.188;2022-11-04T03:52:32;8.80;99.90
34829;DHT22;21042;47.620;12.188;2022-11-04T03:54:59;8.80;99.90
34829;DHT22;21042;47.620;12.188;2022-11-04T04:00:14;8.80;99.90
34829;DHT22;21042;47.620;12.188;2022-11-04T04:03:01;8.80;99.90
34829;DHT22;21042;47.620;12.188;2022-11-04T04:05:50;8.90;99.90
34829;DHT22;21042;47.620;12.188;2022-11-04T04:08:37;8.90;99.90
34829;DHT22;21042;47.620;12.188;2022-11-04T04:11:13;8.90;99.90
34829;DHT22;21042;47.620;12.188;2022-11-04T04:13:52;8.90;99.90
34829;DHT22;21042;47.620;12.188;2022-11-04T04:16:31;8.90;99.90
34829;DHT22;21042;47.620;12.188;2022-11-04T04:22:02;8.90;99.90
34829;DHT22;21042;47.620;12.188;2022-11-04T04:24:34;8.90;99.90
34829;DHT22;21042;47.620;12.188;2022-11-04T04:27:21;8.90;99.90
34829;DHT22;21042;47.620;12.188;2022-11-04T04:30:12;8.80;99.90
34829;DHT22;21042;47.620;12.188;2022-11-04T04:32:45;8.80;99.90
34829;DHT22;21042;47.620;12.188;2022-11-04T04:35:13;8.80;99.90
34829;DHT22;21042;47.620;12.188;2022-11-04T04:38:01;8.80;99.90
34829;DHT22;21042;47.620;12.188;2022-11-04T04:41:02;8.80;99.90
34829;DHT22;21042;47.620;12.188;2022-11-04T04:43:49;8.80;99.90
34829;DHT22;21042;47.620;12.188;2022-11-04T04:46:35;8.80;99.90
34829;DHT22;21042;47.620;12.188;2022-11-04T04:49:08;8.70;99.90
34829;DHT22;21042;47.620;12.188;2022-11-04T04:51:38;8.70;99.90
34829;DHT22;21042;47.620;12.188;2022-11-04T04:54:06;8.70;99.90
34829;DHT22;21042;47.620;12.188;2022-11-04T04:56:33;8.70;99.90
34829;DHT22;21042;47.620;12.188;2022-11-04T04:59:00;8.80;99.90
34829;DHT22;21042;47.620;12.188;2022-11-04T05:01:26;8.70;99.90
34829;DHT22;21042;47.620;12.188;2022-11-04T05:03:53;8.80;99.90
34829;DHT22;21042;47.620;12.188;2022-11-04T05:06:20;8.80;99.90
34829;DHT22;21042;47.620;12.188;2022-11-04T05:08:47;8.80;99.90
34829;DHT22;21042;47.620;12.188;2022-11-04T05:11:14;8.80;99.90
34829;DHT22;21042;47.620;12.188;2022-11-04T05:13:40;8.80;99.90
34829;DHT22;21042;47.620;12.188;2022-11-04T05:16:09;8.80;99.90
34829;DHT22;21042;47.620;12.188;2022-11-04T05:18:36;8.80;99.90
34829;DHT22;21042;47.620;12.188;2022-11-04T05:21:09;8.70;99.90
34829;DHT22;21042;47.620;12.188;2022-11-04T05:23:36;8.70;99.90
34829;DHT22;21042;47.620;12.188;2022-11-04T05:26:03;8.70;99.90
34829;DHT22;21042;47.620;12.188;2022-11-04T05:28:30;8.80;99.90
34829;DHT22;21042;47.620;12.188;2022-11-04T05:31:02;8.80;99.90
34829;DHT22;21042;47.620;12.188;2022-11-04T05:33:29;8.80;99.90
34829;DHT22;21042;47.620;12.188;2022-11-04T05:36:08;8.80;99.90
34829;DHT22;21042;47.620;12.188;2022-11-04T05:38:36;8.80;99.90
34829;DHT22;21042;47.620;12.188;2022-11-04T05:41:03;8.70;99.90
34829;DHT22;21042;47.620;12.188;2022-11-04T05:43:31;8.70;99.90
34829;DHT22;21042;47.620;12.188;2022-11-04T05:45:58;8.70;99.90
34829;DHT22;21042;47.620;12.188;2022-11-04T05:48:26;8.70;99.90
34829;DHT22;21042;47.620;12.188;2022-11-04T05:50:54;8.60;99.90
34829;DHT22;21042;47.620;12.188;2022-11-04T05:53:20;8.60;99.90
34829;DHT22;21042;47.620;12.188;2022-11-04T05:55:47;8.60;99.90
34829;DHT22;21042;47.620;12.188;2022-11-04T05:58:14;8.60;99.90
34829;DHT22;21042;47.620;12.188;2022-11-04T06:00:41;8.60;99.90
34829;DHT22;21042;47.620;12.188;2022-11-04T06:03:08;8.60;99.90
34829;DHT22;21042;47.620;12.188;2022-11-04T06:05:40;8.60;99.90
34829;DHT22;21042;47.620;12.188;2022-11-04T06:08:10;8.60;99.90
34829;DHT22;21042;47.620;12.188;2022-11-04T06:10:37;8.60;99.90
34829;DHT22;21042;47.620;12.188;2022-11-04T06:13:04;8.60;99.90
34829;DHT22;21042;47.620;12.188;2022-11-04T06:15:31;8.60;99.90
34829;DHT22;21042;47.620;12.188;2022-11-04T06:17:58;8.60;99.90
34829;DHT22;21042;47.620;12.188;2022-11-04T06:20:24;8.60;99.90
34829;DHT22;21042;47.620;12.188;2022-11-04T06:22:51;8.60;99.90
34829;DHT22;21042;47.620;12.188;2022-11-04T06:25:18;8.60;99.90
34829;DHT22;21042;47.620;12.188;2022-11-04T06:27:45;8.80;99.90
34829;DHT22;21042;47.620;12.188;2022-11-04T06:30:12;8.60;99.90
34829;DHT22;21042;47.620;12.188;2022-11-04T06:32:39;8.60;99.90
34829;DHT22;21042;47.620;12.188;2022-11-04T06:35:06;8.60;99.90
34829;DHT22;21042;47.620;12.188;2022-11-04T06:37:34;8.60;99.90
34829;DHT22;21042;47.620;12.188;2022-11-04T06:40:01;8.60;99.90
34829;DHT22;21042;47.620;12.188;2022-11-04T06:42:27;8.50;99.90
34829;DHT22;21042;47.620;12.188;2022-11-04T06:44:54;8.40;99.90
34829;DHT22;21042;47.620;12.188;2022-11-04T06:47:21;8.40;99.90
34829;DHT22;21042;47.620;12.188;2022-11-04T06:49:50;8.30;99.90
34829;DHT22;21042;47.620;12.188;2022-11-04T06:52:17;8.30;99.90
34829;DHT22;21042;47.620;12.188;2022-11-04T06:54:44;8.30;99.90
34829;DHT22;21042;47.620;12.188;2022-11-04T06:57:11;8.20;99.90
34829;DHT22;21042;47.620;12.188;2022-11-04T06:59:38;8.20;99.90
34829;DHT22;21042;47.620;12.188;2022-11-04T07:02:05;8.30;99.90
34829;DHT22;21042;47.620;12.188;2022-11-04T07:04:32;8.20;99.90
34829;DHT22;21042;47.620;12.188;2022-11-04T07:06:59;8.20;99.90
34829;DHT22;21042;47.620;12.188;2022-11-04T07:09:26;8.20;99.90
34829;DHT22;21042;47.620;12.188;2022-11-04T07:11:52;8.20;99.90
34829;DHT22;21042;47.620;12.188;2022-11-04T07:14:19;8.20;99.90
34829;DHT22;21042;47.620;12.188;2022-11-04T07:16:49;8.10;99.90
34829;DHT22;21042;47.620;12.188;2022-11-04T07:19:16;8.10;99.90
34829;DHT22;21042;47.620;12.188;2022-11-04T07:21:43;8.10;99.90
34829;DHT22;21042;47.620;12.188;2022-11-04T07:24:10;8.10;99.90
34829;DHT22;21042;47.620;12.188;2022-11-04T07:26:36;8.00;99.90
34829;DHT22;21042;47.620;12.188;2022-11-04T07:29:03;7.90;99.90
34829;DHT22;21042;47.620;12.188;2022-11-04T07:31:32;7.90;99.90
34829;DHT22;21042;47.620;12.188;2022-11-04T07:33:58;7.90;99.90
34829;DHT22;21042;47.620;12.188;2022-11-04T07:36:25;7.90;99.90
34829;DHT22;21042;47.620;12.188;2022-11-04T07:38:53;7.80;99.90
34829;DHT22;21042;47.620;12.188;2022-11-04T07:41:20;7.80;99.90
34829;DHT22;21042;47.620;12.188;2022-11-04T07:43:51;7.80;99.90
34829;DHT22;21042;47.620;12.188;2022-11-04T07:46:19;7.80;99.90
34829;DHT22;21042;47.620;12.188;2022-11-04T07:48:46;7.70;99.90
34829;DHT22;21042;47.620;12.188;2022-11-04T07:51:16;7.70;99.90
34829;DHT22;21042;47.620;12.188;2022-11-04T07:53:43;7.70;99.90
34829;DHT22;21042;47.620;12.188;2022-11-04T07:56:11;7.60;99.90
34829;DHT22;21042;47.620;12.188;2022-11-04T07:58:39;7.60;99.90
34829;DHT22;21042;47.620;12.188;2022-11-04T08:01:08;7.60;99.90
34829;DHT22;21042;47.620;12.188;2022-11-04T08:03:36;7.50;99.90
34829;DHT22;21042;47.620;12.188;2022-11-04T08:06:05;7.40;99.90
34829;DHT22;21042;47.620;12.188;2022-11-04T08:08:32;7.30;99.90
34829;DHT22;21042;47.620;12.188;2022-11-04T08:11:03;7.20;99.90
34829;DHT22;21042;47.620;12.188;2022-11-04T08:13:32;7.20;99.90
34829;DHT22;21042;47.620;12.188;2022-11-04T08:16:04;7.20;99.90
34829;DHT22;21042;47.620;12.188;2022-11-04T08:18:32;7.20;99.90
34829;DHT22;21042;47.620;12.188;2022-11-04T08:21:00;7.10;99.90
34829;DHT22;21042;47.620;12.188;2022-11-04T08:23:28;7.10;99.90
34829;DHT22;21042;47.620;12.188;2022-11-04T08:25:56;7.20;99.90
34829;DHT22;21042;47.620;12.188;2022-11-04T08:28:23;7.10;99.90
34829;DHT22;21042;47.620;12.188;2022-11-04T08:33:24;7.10;99.90
34829;DHT22;21042;47.620;12.188;2022-11-04T08:35:52;7.10;99.90
34829;DHT22;21042;47.620;12.188;2022-11-04T08:38:19;7.10;99.90
34829;DHT22;21042;47.620;12.188;2022-11-04T08:40:46;7.00;99.90
34829;DHT22;21042;47.620;12.188;2022-11-04T08:43:13;7.00;99.90
34829;DHT22;21042;47.620;12.188;2022-11-04T08:45:42;6.90;99.90
34829;DHT22;21042;47.620;12.188;2022-11-04T08:48:09;6.90;99.90
34829;DHT22;21042;47.620;12.188;2022-11-04T08:50:37;6.90;99.90
34829;DHT22;21042;47.620;12.188;2022-11-04T08:53:04;6.90;99.90
34829;DHT22;21042;47.620;12.188;2022-11-04T08:55:31;6.90;99.90
34829;DHT22;21042;47.620;12.188;2022-11-04T08:57:59;7.00;99.90
34829;DHT22;21042;47.620;12.188;2022-11-04T09:00:26;6.90;99.90
34829;DHT22;21042;47.620;12.188;2022-11-04T09:02:53;6.90;99.90
34829;DHT22;21042;47.620;12.188;2022-11-04T09:05:21;6.80;99.90
34829;DHT22;21042;47.620;12.188;2022-11-04T09:07:48;6.80;99.90
34829;DHT22;21042;47.620;12.188;2022-11-04T09:10:15;6.80;99.90
34829;DHT22;21042;47.620;12.188;2022-11-04T09:12:43;6.80;99.90
34829;DHT22;21042;47.620;12.188;2022-11-04T09:15:10;6.80;99.90
34829;DHT22;21042;47.620;12.188;2022-11-04T09:17:37;6.70;99.90
34829;DHT22;21042;47.620;12.188;2022-11-04T09:20:04;6.70;99.90
34829;DHT22;21042;47.620;12.188;2022-11-04T09:22:32;6.70;99.90
34829;DHT22;21042;47.620;12.188;2022-11-04T09:24:58;6.60;99.90
34829;DHT22;21042;47.620;12.188;2022-11-04T09:27:25;6.60;99.90
34829;DHT22;21042;47.620;12.188;2022-11-04T09:29:52;6.60;99.90
34829;DHT22;21042;47.620;12.188;2022-11-04T09:32:18;6.60;99.90
34829;DHT22;21042;47.620;12.188;2022-11-04T09:34:45;6.60;99.90
34829;DHT22;21042;47.620;12.188;2022-11-04T09:37:12;6.60;99.90
34829;DHT22;21042;47.620;12.188;2022-11-04T09:39:38;6.50;99.90
34829;DHT22;21042;47.620;12.188;2022-11-04T09:42:29;6.50;99.90
34829;DHT22;21042;47.620;12.188;2022-11-04T09:45:08;6.40;99.90
34829;DHT22;21042;47.620;12.188;2022-11-04T09:47:57;6.50;99.90
34829;DHT22;21042;47.620;12.188;2022-11-04T09:50:35;6.40;99.90
34829;DHT22;21042;47.620;12.188;2022-11-04T09:53:24;6.40;99.90
34829;DHT22;21042;47.620;12.188;2022-11-04T09:58:19;6.30;99.90
34829;DHT22;21042;47.620;12.188;2022-11-04T10:01:11;6.30;99.90
34829;DHT22;21042;47.620;12.188;2022-11-04T10:06:42;6.30;99.90
34829;DHT22;21042;47.620;12.188;2022-11-04T10:09:20;6.30;99.90
34829;DHT22;21042;47.620;12.188;2022-11-04T10:21:33;6.20;99.90
34829;DHT22;21042;47.620;12.188;2022-11-04T10:26:53;6.10;99.90
34829;DHT22;21042;47.620;12.188;2022-11-04T10:29:41;6.00;99.90
34829;DHT22;21042;47.620;12.188;2022-11-04T10:32:33;6.10;99.90
34829;DHT22;21042;47.620;12.188;2022-11-04T10:35:05;6.00;99.90
34829;DHT22;21042;47.620;12.188;2022-11-04T10:37:33;6.00;99.90
34829;DHT22;21042;47.620;12.188;2022-11-04T10:40:16;6.00;99.90
34829;DHT22;21042;47.620;12.188;2022-11-04T10:42:45;5.90;99.90
34829;DHT22;21042;47.620;12.188;2022-11-04T10:45:12;5.90;99.90
34829;DHT22;21042;47.620;12.188;2022-11-04T10:47:46;5.90;99.90
34829;DHT22;21042;47.620;12.188;2022-11-04T10:50:23;5.90;99.90
34829;DHT22;21042;47.620;12.188;2022-11-04T10:53:18;5.80;99.90
34829;DHT22;21042;47.620;12.188;2022-11-04T10:58:46;5.80;99.90
34829;DHT22;21042;47.620;12.188;2022-11-04T11:03:49;5.70;99.90
34829;DHT22;21042;47.620;12.188;2022-11-04T11:06:29;5.60;99.90
34829;DHT22;21042;47.620;12.188;2022-11-04T11:09:11;5.70;99.90
34829;DHT22;21042;47.620;12.188;2022-11-04T11:11:47;5.60;99.90
34829;DHT22;21042;47.620;12.188;2022-11-04T11:16:54;5.50;99.90
34829;DHT22;21042;47.620;12.188;2022-11-04T11:19:23;5.50;99.90
34829;DHT22;21042;47.620;12.188;2022-11-04T11:21:53;5.70;99.90
34829;DHT22;21042;47.620;12.188;2022-11-04T11:24:23;5.60;99.90
34829;DHT22;21042;47.620;12.188;2022-11-04T11:26:54;5.60;99.90
34829;DHT22;21042;47.620;12.188;2022-11-04T11:31:53;5.60;99.90
34829;DHT22;21042;47.620;12.188;2022-11-04T11:34:24;5.60;99.90
34829;DHT22;21042;47.620;12.188;2022-11-04T11:36:54;5.70;99.90
34829;DHT22;21042;47.620;12.188;2022-11-04T11:39:26;5.60;99.90
34829;DHT22;21042;47.620;12.188;2022-11-04T11:42:02;5.60;99.90
34829;DHT22;21042;47.620;12.188;2022-11-04T11:44:36;5.60;99.90
34829;DHT22;21042;47.620;12.188;2022-11-04T11:47:33;5.50;99.90
34829;DHT22;21042;47.620;12.188;2022-11-04T11:52:42;5.40;99.90
34829;DHT22;21042;47.620;12.188;2022-11-04T11:55:24;5.40;99.90
34829;DHT22;21042;47.620;12.188;2022-11-04T12:03:51;5.40;99.90
34829;DHT22;21042;47.620;12.188;2022-11-04T12:06:51;5.40;99.90
34829;DHT22;21042;47.620;12.188;2022-11-04T12:16:11;5.30;99.90
34829;DHT22;21042;47.620;12.188;2022-11-04T12:21:46;5.30;99.90
34829;DHT22;21042;47.620;12.188;2022-11-04T12:32:36;5.20;99.90
34829;DHT22;21042;47.620;12.188;2022-11-04T12:40:27;5.00;99.90
34829;DHT22;21042;47.620;12.188;2022-11-04T12:54:59;5.40;99.90
34829;DHT22;21042;47.620;12.188;2022-11-04T13:00:21;5.00;99.90
34829;DHT22;21042;47.620;12.188;2022-11-04T13:02:59;5.00;99.90
34829;DHT22;21042;47.620;12.188;2022-11-04T13:05:35;4.90;99.90
34829;DHT22;21042;47.620;12.188;2022-11-04T13:10:47;5.10;99.90
34829;DHT22;21042;47.620;12.188;2022-11-04T13:13:17;5.20;99.90
34829;DHT22;21042;47.620;12.188;2022-11-04T13:15:50;5.20;99.90
34829;DHT22;21042;47.620;12.188;2022-11-04T13:18:19;5.20;99.90
34829;DHT22;21042;47.620;12.188;2022-11-04T13:23:53;5.20;99.90
34829;DHT22;21042;47.620;12.188;2022-11-04T13:26:22;5.10;99.90
34829;DHT22;21042;47.620;12.188;2022-11-04T13:28:57;5.00;99.90
34829;DHT22;21042;47.620;12.188;2022-11-04T13:34:23;4.90;99.90
34829;DHT22;21042;47.620;12.188;2022-11-04T13:37:29;4.90;99.90
34829;DHT22;21042;47.620;12.188;2022-11-04T13:45:54;5.00;99.90
34829;DHT22;21042;47.620;12.188;2022-11-04T13:48:25;5.10;99.90
34829;DHT22;21042;47.620;12.188;2022-11-04T13:51:03;5.10;99.90
34829;DHT22;21042;47.620;12.188;2022-11-04T13:53:56;5.00;99.90
34829;DHT22;21042;47.620;12.188;2022-11-04T13:59:17;4.80;99.90
34829;DHT22;21042;47.620;12.188;2022-11-04T14:01:45;4.60;99.90
34829;DHT22;21042;47.620;12.188;2022-11-04T14:06:55;4.60;99.90
34829;DHT22;21042;47.620;12.188;2022-11-04T14:09:32;4.60;99.90
34829;DHT22;21042;47.620;12.188;2022-11-04T14:14:50;4.30;99.90
34829;DHT22;21042;47.620;12.188;2022-11-04T14:33:06;4.50;99.90
34829;DHT22;21042;47.620;12.188;2022-11-04T14:35:34;4.50;99.90
34829;DHT22;21042;47.620;12.188;2022-11-04T14:38:05;4.50;99.90
34829;DHT22;21042;47.620;12.188;2022-11-04T14:41:13;4.50;99.90
34829;DHT22;21042;47.620;12.188;2022-11-04T14:43:44;4.50;99.90
34829;DHT22;21042;47.620;12.188;2022-11-04T14:46:18;4.30;99.90
34829;DHT22;21042;47.620;12.188;2022-11-04T14:48:49;4.40;99.90
34829;DHT22;21042;47.620;12.188;2022-11-04T14:51:27;4.40;99.90
34829;DHT22;21042;47.620;12.188;2022-11-04T14:54:20;4.30;99.90
34829;DHT22;21042;47.620;12.188;2022-11-04T14:56:48;4.30;99.90
34829;DHT22;21042;47.620;12.188;2022-11-04T14:59:20;4.40;99.90
34829;DHT22;21042;47.620;12.188;2022-11-04T15:01:48;4.40;99.90
34829;DHT22;21042;47.620;12.188;2022-11-04T15:04:24;4.50;99.90
34829;DHT22;21042;47.620;12.188;2022-11-04T15:07:00;4.60;99.90
34829;DHT22;21042;47.620;12.188;2022-11-04T15:09:32;4.60;99.90
34829;DHT22;21042;47.620;12.188;2022-11-04T15:14:54;4.70;99.90
34829;DHT22;21042;47.620;12.188;2022-11-04T15:17:25;4.70;99.90
34829;DHT22;21042;47.620;12.188;2022-11-04T15:19:55;4.80;99.90
34829;DHT22;21042;47.620;12.188;2022-11-04T15:22:23;4.70;99.90
34829;DHT22;21042;47.620;12.188;2022-11-04T15:24:50;4.80;99.90
34829;DHT22;21042;47.620;12.188;2022-11-04T15:27:18;4.70;99.90
34829;DHT22;21042;47.620;12.188;2022-11-04T15:29:54;4.70;99.90
34829;DHT22;21042;47.620;12.188;2022-11-04T15:32:21;4.70;99.90
34829;DHT22;21042;47.620;12.188;2022-11-04T15:34:49;4.70;99.90
34829;DHT22;21042;47.620;12.188;2022-11-04T15:37:16;4.70;99.90
34829;DHT22;21042;47.620;12.188;2022-11-04T15:39:45;4.70;99.90
34829;DHT22;21042;47.620;12.188;2022-11-04T15:42:28;4.70;99.90
34829;DHT22;21042;47.620;12.188;2022-11-04T15:48:26;4.60;99.90
34829;DHT22;21042;47.620;12.188;2022-11-04T15:53:46;4.60;99.90
34829;DHT22;21042;47.620;12.188;2022-11-04T15:56:15;4.50;99.90
34829;DHT22;21042;47.620;12.188;2022-11-04T15:58:43;4.50;99.90
34829;DHT22;21042;47.620;12.188;2022-11-04T16:01:17;4.50;99.90
34829;DHT22;21042;47.620;12.188;2022-11-04T16:03:59;4.50;99.90
34829;DHT22;21042;47.620;12.188;2022-11-04T16:06:38;4.50;99.90
34829;DHT22;21042;47.620;12.188;2022-11-04T16:09:18;4.50;99.90
34829;DHT22;21042;47.620;12.188;2022-11-04T16:12:10;4.50;99.90
34829;DHT22;21042;47.620;12.188;2022-11-04T16:14:45;4.40;99.90
34829;DHT22;21042;47.620;12.188;2022-11-04T16:17:12;4.40;99.90
34829;DHT22;21042;47.620;12.188;2022-11-04T16:19:38;4.40;99.90
34829;DHT22;21042;47.620;12.188;2022-11-04T16:22:07;4.40;99.90
34829;DHT22;21042;47.620;12.188;2022-11-04T16:24:37;4.40;99.90
34829;DHT22;21042;47.620;12.188;2022-11-04T16:27:09;4.40;99.90
34829;DHT22;21042;47.620;12.188;2022-11-04T16:29:37;4.40;99.90
34829;DHT22;21042;47.620;12.188;2022-11-04T16:32:15;4.50;99.90
34829;DHT22;21042;47.620;12.188;2022-11-04T16:34:48;4.50;99.90
34829;DHT22;21042;47.620;12.188;2022-11-04T16:37:15;4.50;99.90
34829;DHT22;21042;47.620;12.188;2022-11-04T16:39:44;4.50;99.90
34829;DHT22;21042;47.620;12.188;2022-11-04T16:42:12;4.50;99.90
34829;DHT22;21042;47.620;12.188;2022-11-04T16:44:44;4.50;99.90
34829;DHT22;21042;47.620;12.188;2022-11-04T16:47:11;4.50;99.90
34829;DHT22;21042;47.620;12.188;2022-11-04T16:49:38;4.50;99.90
34829;DHT22;21042;47.620;12.188;2022-11-04T16:52:08;4.50;99.90
34829;DHT22;21042;47.620;12.188;2022-11-04T16:54:38;4.50;99.90
34829;DHT22;21042;47.620;12.188;2022-11-04T16:57:05;4.50;99.90
34829;DHT22;21042;47.620;12.188;2022-11-04T16:59:37;4.50;99.90
34829;DHT22;21042;47.620;12.188;2022-11-04T17:02:30;4.50;99.90
34829;DHT22;21042;47.620;12.188;2022-11-04T17:04:57;4.50;99.90
34829;DHT22;21042;47.620;12.188;2022-11-04T17:07:24;4.50;99.90
34829;DHT22;21042;47.620;12.188;2022-11-04T17:10:20;4.50;99.90
34829;DHT22;21042;47.620;12.188;2022-11-04T17:12:47;4.50;99.90
34829;DHT22;21042;47.620;12.188;2022-11-04T17:15:15;4.50;99.90
34829;DHT22;21042;47.620;12.188;2022-11-04T17:17:42;4.50;99.90
34829;DHT22;21042;47.620;12.188;2022-11-04T17:20:10;4.50;99.90
34829;DHT22;21042;47.620;12.188;2022-11-04T17:22:37;4.50;99.90
34829;DHT22;21042;47.620;12.188;2022-11-04T17:25:20;4.50;99.90
34829;DHT22;21042;47.620;12.188;2022-11-04T17:27:48;4.50;99.90
34829;DHT22;21042;47.620;12.188;2022-11-04T17:30:16;4.50;99.90
34829;DHT22;21042;47.620;12.188;2022-11-04T17:32:44;4.40;99.90
34829;DHT22;21042;47.620;12.188;2022-11-04T17:35:11;4.50;99.90
34829;DHT22;21042;47.620;12.188;2022-11-04T17:37:38;4.50;99.90
34829;DHT22;21042;47.620;12.188;2022-11-04T17:40:06;4.40;99.90
34829;DHT22;21042;47.620;12.188;2022-11-04T17:42:33;4.50;99.90
34829;DHT22;21042;47.620;12.188;2022-11-04T17:45:19;4.50;99.90
34829;DHT22;21042;47.620;12.188;2022-11-04T17:47:45;4.50;99.90
34829;DHT22;21042;47.620;12.188;2022-11-04T17:50:12;4.40;99.90
34829;DHT22;21042;47.620;12.188;2022-11-04T17:52:39;4.40;99.90
34829;DHT22;21042;47.620;12.188;2022-11-04T17:55:08;4.50;99.90
34829;DHT22;21042;47.620;12.188;2022-11-04T17:57:42;4.50;99.90
34829;DHT22;21042;47.620;12.188;2022-11-04T18:00:09;4.50;99.90
34829;DHT22;21042;47.620;12.188;2022-11-04T18:02:36;4.50;99.90
34829;DHT22;21042;47.620;12.188;2022-11-04T18:05:04;4.50;99.90
34829;DHT22;21042;47.620;12.188;2022-11-04T18:07:31;4.50;99.90
34829;DHT22;21042;47.620;12.188;2022-11-04T18:09:58;4.50;99.90
34829;DHT22;21042;47.620;12.188;2022-11-04T18:12:24;4.50;99.90
34829;DHT22;21042;47.620;12.188;2022-11-04T18:15:05;4.50;99.90
34829;DHT22;21042;47.620;12.188;2022-11-04T18:17:37;4.50;99.90
34829;DHT22;21042;47.620;12.188;2022-11-04T18:20:04;4.50;99.90
34829;DHT22;21042;47.620;12.188;2022-11-04T18:22:38;4.50;99.90
34829;DHT22;21042;47.620;12.188;2022-11-04T18:25:05;4.50;99.90
34829;DHT22;21042;47.620;12.188;2022-11-04T18:27:32;4.40;99.90
34829;DHT22;21042;47.620;12.188;2022-11-04T18:29:59;4.40;99.90
34829;DHT22;21042;47.620;12.188;2022-11-04T18:32:26;4.30;99.90
34829;DHT22;21042;47.620;12.188;2022-11-04T18:34:52;4.20;99.90
34829;DHT22;21042;47.620;12.188;2022-11-04T18:37:19;4.20;99.90